createdAt,value
2023-02-22T00:04:10.481Z,8.23
2023-02-22T00:09:20.870Z,10.55
2023-02-22T00:14:28.948Z,8.38
2023-02-22T00:19:35.501Z,7.93
2023-02-22T00:24:41.871Z,4.68
2023-02-22T00:29:50.193Z,8.05
2023-02-22T00:34:56.637Z,5.50
2023-02-22T00:40:08.869Z,9.02
2023-02-22T00:45:20.605Z,5.50
2023-02-22T00:50:29.468Z,4.28
2023-02-22T00:55:40.289Z,5.47
2023-02-22T01:00:48.992Z,4.82
2023-02-22T01:05:55.227Z,4.97
2023-02-22T01:11:01.819Z,7.28
2023-02-22T01:16:10.104Z,11.43
2023-02-22T01:21:16.967Z,10.80
2023-02-22T01:26:23.474Z,7.82
2023-02-22T01:31:31.119Z,7.03
2023-02-22T01:36:38.032Z,5.18
2023-02-22T01:41:44.681Z,8.10
2023-02-22T01:46:52.878Z,8.60
2023-02-22T01:52:03.448Z,10.15
2023-02-22T01:57:17.494Z,7.88
2023-02-22T02:02:25.699Z,8.27
2023-02-22T02:07:33.620Z,10.40
2023-02-22T02:12:40.247Z,7.25
2023-02-22T02:17:49.661Z,11.65
2023-02-22T02:23:10.244Z,9.25
2023-02-22T02:29:10.710Z,11.40
2023-02-22T02:34:25.710Z,7.10
2023-02-22T02:39:37.473Z,5.85
2023-02-22T02:44:48.671Z,7.95
2023-02-22T02:50:01.968Z,5.22
2023-02-22T02:55:12.202Z,8.18
2023-02-22T03:00:26.280Z,8.02
2023-02-22T03:06:06.120Z,5.90
2023-02-22T03:11:17.002Z,10.70
2023-02-22T03:16:35.711Z,6.90
2023-02-22T03:21:51.461Z,6.05
2023-02-22T03:27:05.258Z,2.50
2023-02-22T03:32:17.614Z,7.13
2023-02-22T03:37:29.389Z,7.13
2023-02-22T03:42:39.247Z,6.63
2023-02-22T03:47:51.906Z,8.88
2023-02-22T03:53:00.647Z,4.47
2023-02-22T03:58:14.137Z,9.45
2023-02-22T04:03:21.373Z,6.28
2023-02-22T04:08:30.576Z,4.93
2023-02-22T04:18:42.550Z,3.25
2023-02-22T04:23:50.458Z,3.70
2023-02-22T04:28:57.018Z,3.20
2023-02-22T04:34:05.409Z,3.70
2023-02-22T04:39:17.371Z,4.63
2023-02-22T04:44:24.298Z,4.68
2023-02-22T04:49:34.518Z,5.47
2023-02-22T04:54:43.423Z,3.85
2023-02-22T04:59:51.621Z,3.55
2023-02-22T05:05:02.921Z,3.80
2023-02-22T05:10:12.101Z,4.47
2023-02-22T05:15:20.524Z,4.18
2023-02-22T05:20:30.702Z,4.17
2023-02-22T05:25:38.992Z,4.60
2023-02-22T05:30:45.622Z,3.53
2023-02-22T05:35:52.288Z,4.85
2023-02-22T05:41:00.115Z,5.95
2023-02-22T05:46:07.713Z,5.15
2023-02-22T05:51:14.380Z,9.93
2023-02-22T05:56:27.037Z,4.65
2023-02-22T06:01:33.860Z,9.75
2023-02-22T06:06:40.443Z,6.05
2023-02-22T06:11:48.564Z,5.20
2023-02-22T06:16:56.105Z,4.80
2023-02-22T06:22:05.055Z,6.43
2023-02-22T06:27:12.947Z,9.25
2023-02-22T06:32:19.421Z,11.63
2023-02-22T06:37:25.914Z,13.38
2023-02-22T06:42:33.970Z,7.75
2023-02-22T06:47:43.697Z,8.52
2023-02-22T06:52:49.874Z,7.20
2023-02-22T06:57:58.294Z,6.22
2023-02-22T07:03:07.010Z,6.30
2023-02-22T07:08:14.420Z,7.30
2023-02-22T07:13:22.530Z,4.85
2023-02-22T07:18:30.014Z,5.65
2023-02-22T07:23:40.384Z,9.83
2023-02-22T07:28:48.494Z,6.10
2023-02-22T07:33:55.781Z,10.50
2023-02-22T07:39:02.097Z,5.60
2023-02-22T07:44:10.044Z,4.22
2023-02-22T07:49:16.472Z,4.10
2023-02-22T07:54:22.956Z,4.72
2023-02-22T07:59:31.030Z,5.30
2023-02-22T08:04:37.486Z,5.73
2023-02-22T08:09:43.740Z,17.77
2023-02-22T08:14:51.538Z,7.45
2023-02-22T08:19:57.896Z,3.20
2023-02-22T08:25:04.217Z,4.30
2023-02-22T08:30:16.429Z,3.72
2023-02-22T08:35:24.478Z,5.38
2023-02-22T08:40:33.557Z,2.75
2023-02-22T08:50:47.335Z,6.88
2023-02-22T08:55:54.473Z,6.38
2023-02-22T09:01:02.502Z,6.18
2023-02-22T09:06:09.327Z,4.90
2023-02-22T09:11:16.412Z,6.75
2023-02-22T09:16:24.488Z,5.80
2023-02-22T09:21:31.944Z,4.40
2023-02-22T09:26:40.308Z,4.95
2023-02-22T09:31:48.140Z,6.07
2023-02-22T09:36:54.582Z,7.00
2023-02-22T09:42:11.038Z,5.63
2023-02-22T09:47:32.707Z,6.78
2023-02-22T09:52:49.275Z,5.90
2023-02-22T09:57:58.167Z,9.38
2023-02-22T10:08:33.685Z,14.13
2023-02-22T10:13:53.607Z,8.80
2023-02-22T10:19:29.582Z,19.73
2023-02-22T10:24:48.034Z,16.83
2023-02-22T10:30:01.174Z,8.68
2023-02-22T10:35:22.669Z,10.32
2023-02-22T10:40:33.615Z,7.75
2023-02-22T10:45:40.206Z,10.13
2023-02-22T10:50:50.808Z,10.48
2023-02-22T10:56:15.196Z,5.38
2023-02-22T11:01:41.101Z,7.88
2023-02-22T11:06:51.950Z,7.53
2023-02-22T11:12:13.150Z,7.90
2023-02-22T11:17:32.937Z,7.85
2023-02-22T11:22:43.681Z,17.45
2023-02-22T11:27:50.562Z,8.07
2023-02-22T11:33:01.482Z,5.57
2023-02-22T11:38:21.405Z,7.53
2023-02-22T11:43:28.037Z,20.45
2023-02-22T11:48:39.793Z,5.97
2023-02-22T11:54:09.646Z,5.32
2023-02-22T11:59:32.328Z,5.65
2023-02-22T12:05:08.399Z,7.63
2023-02-22T12:10:28.591Z,8.02
2023-02-22T12:15:41.546Z,8.05
2023-02-22T12:20:55.585Z,7.30
2023-02-22T12:26:11.881Z,6.13
2023-02-22T12:31:25.633Z,5.00
2023-02-22T12:36:41.433Z,4.90
2023-02-22T12:41:53.328Z,5.50
2023-02-22T12:47:02.817Z,3.97
2023-02-22T12:52:22.340Z,3.83
2023-02-22T12:57:43.140Z,7.80
2023-02-22T13:02:59.205Z,7.65
2023-02-22T13:08:23.080Z,4.15
2023-02-22T13:13:43.251Z,4.35
2023-02-22T13:18:58.862Z,6.13
2023-02-22T13:24:13.862Z,5.55
2023-02-22T13:29:28.820Z,9.15
2023-02-22T13:35:12.589Z,21.83
2023-02-22T13:40:46.995Z,11.40
2023-02-22T13:46:39.389Z,24.23
2023-02-22T13:51:57.093Z,5.22
2023-02-22T13:57:04.820Z,4.00
2023-02-22T14:02:55.895Z,12.50
2023-02-22T14:08:02.649Z,6.10
2023-02-22T14:13:09.866Z,4.90
2023-02-22T14:18:21.185Z,4.82
2023-02-22T14:23:38.293Z,12.57
2023-02-22T14:28:57.463Z,6.47
2023-02-22T14:34:16.530Z,7.30
2023-02-22T14:39:33.119Z,10.80
2023-02-22T14:44:50.642Z,5.97
2023-02-22T14:50:06.900Z,4.65
2023-02-22T14:55:26.116Z,4.40
2023-02-22T15:00:42.950Z,6.72
2023-02-22T15:05:51.307Z,14.30
2023-02-22T15:10:59.200Z,12.43
2023-02-22T15:16:08.792Z,7.82
2023-02-22T15:21:18.938Z,20.50
2023-02-22T15:26:31.706Z,16.63
2023-02-22T15:31:44.391Z,17.85
2023-02-22T15:36:56.572Z,12.13
2023-02-22T15:42:09.713Z,14.85
2023-02-22T15:47:21.458Z,11.05
2023-02-22T15:52:30.001Z,9.77
2023-02-22T15:57:37.991Z,16.67
2023-02-22T16:02:45.091Z,14.40
2023-02-22T16:07:55.307Z,23.77
2023-02-22T16:13:22.176Z,49.13
2023-02-22T16:18:41.131Z,46.10
2023-02-22T16:24:01.358Z,33.20
2023-02-22T16:29:28.627Z,27.92
2023-02-22T16:34:35.374Z,35.22
2023-02-22T16:39:47.722Z,39.20
2023-02-22T16:44:55.033Z,46.67
2023-02-22T16:50:02.501Z,30.67
2023-02-22T16:55:17.167Z,31.35
2023-02-22T17:00:32.891Z,27.40
2023-02-22T17:05:40.924Z,29.08
2023-02-22T17:16:02.170Z,28.70
2023-02-22T17:21:13.579Z,32.08
2023-02-22T17:26:22.742Z,42.80
2023-02-22T17:31:32.826Z,61.03
2023-02-22T17:36:40.641Z,50.45
2023-02-22T17:41:58.411Z,60.10
2023-02-22T17:47:06.576Z,72.60
2023-02-22T17:52:16.809Z,93.53
2023-02-22T17:57:27.684Z,91.93
2023-02-22T18:02:39.571Z,88.80
2023-02-22T18:07:48.215Z,90.70
2023-02-22T18:13:02.231Z,83.70
2023-02-22T18:18:12.708Z,75.15
2023-02-22T18:23:28.899Z,68.88
2023-02-22T18:28:43.440Z,60.47
2023-02-22T18:33:58.633Z,51.13
2023-02-22T18:39:13.046Z,57.88
2023-02-22T18:44:35.154Z,63.15
2023-02-22T18:49:44.668Z,62.85
2023-02-22T18:55:01.975Z,55.80
2023-02-22T19:00:29.202Z,59.42
2023-02-22T19:05:40.613Z,42.95
2023-02-22T19:10:53.254Z,45.00
2023-02-22T19:16:08.044Z,47.10
2023-02-22T19:21:19.515Z,47.97
2023-02-22T19:26:31.860Z,32.42
2023-02-22T19:37:36.960Z,38.05
2023-02-22T19:42:48.605Z,39.03
2023-02-22T19:47:59.084Z,31.27
2023-02-22T19:53:16.786Z,27.65
2023-02-22T19:58:26.408Z,29.38
2023-02-22T20:03:39.568Z,28.73
2023-02-22T20:08:52.058Z,29.58
2023-02-22T20:14:03.442Z,28.27
2023-02-22T20:19:12.148Z,26.88
2023-02-22T20:24:28.361Z,22.27
2023-02-22T20:29:43.720Z,29.00
2023-02-22T20:34:53.871Z,24.75
2023-02-22T20:40:08.948Z,28.20
2023-02-22T20:45:20.798Z,24.40
2023-02-22T20:50:34.151Z,25.42
2023-02-22T20:55:53.447Z,31.65
2023-02-22T21:01:12.523Z,41.50
2023-02-22T21:06:23.703Z,34.83
2023-02-22T21:11:39.321Z,41.10
2023-02-22T21:16:56.478Z,49.50
2023-02-22T21:22:13.716Z,63.17
2023-02-22T21:27:25.024Z,78.63
2023-02-22T21:32:36.227Z,72.70
2023-02-22T21:37:48.198Z,48.90
2023-02-22T21:42:59.185Z,44.95
2023-02-22T21:48:09.881Z,47.03
2023-02-22T21:53:18.989Z,51.38
2023-02-22T21:58:31.295Z,71.63
2023-02-22T22:03:38.566Z,48.08
2023-02-22T22:08:49.135Z,56.65
2023-02-22T22:14:05.700Z,51.88
2023-02-22T22:19:16.337Z,45.95
2023-02-22T22:24:29.812Z,56.33
2023-02-22T22:29:44.483Z,48.65
2023-02-22T22:34:57.424Z,43.15
2023-02-22T22:40:16.631Z,50.40
2023-02-22T22:45:28.357Z,59.53
2023-02-22T22:50:41.201Z,56.97
2023-02-22T22:55:50.798Z,55.58
2023-02-22T23:01:02.113Z,47.88
2023-02-22T23:06:10.706Z,41.88
2023-02-22T23:11:18.578Z,38.55
2023-02-22T23:16:27.348Z,56.90
2023-02-22T23:21:36.189Z,42.72
2023-02-22T23:26:42.885Z,40.90
2023-02-22T23:31:51.820Z,42.33
2023-02-22T23:42:04.782Z,26.63
2023-02-22T23:47:12.968Z,27.05
2023-02-22T23:52:24.491Z,19.38
2023-02-22T23:57:33.183Z,21.58
